Gas Texiana — V7JG6 — position and weather

sailwx.info

Track history (hours):
 
Tides and Currents Weather Stations Pressure Air Temp Water Temp Dewpoint Dewpoint Depression Visibility Wind Speed Wind Dir Waves Ship Positions

Gas Texiana

Last reported at 2018-Apr-21 06:50 UTC. Time now 2018-Apr-21 07:56 UTC.
Position N 53°54' E 007°47'.

Length 105 m; draft 5 m.

Type: Ship (hazmat cat A). MMSI: 538002515.

Date/timePositionNaut miles runAvg speedWind from/ knotsBaromVisibWave heightAir tempDewpointWater temp
2018-Apr-21 06:50N 53°54' E 007°47'0 0.0
2018-Apr-21 06:26N 53°54' E 007°47'0 0.0
2018-Apr-21 05:56N 53°54' E 007°47'0 0.0
2018-Apr-21 05:26N 53°54' E 007°47'0 0.0
2018-Apr-21 02:44N 53°54' E 007°47'0 0.0
2018-Apr-21 02:14N 53°54' E 007°47'0 0.0
2018-Apr-20 20:52N 53°54' E 007°47'0 0.0
2018-Apr-20 06:21N 53°54' E 007°47'0 0.0
2018-Apr-20 05:45N 53°54' E 007°47'0 0.0
2018-Apr-20 05:27N 53°54' E 007°47'0 0.0
2018-Apr-20 04:57N 53°54' E 007°47'0 0.0
2018-Apr-20 03:17N 53°54' E 007°47'0 0.0
2018-Apr-20 01:38N 53°54' E 007°47'0 0.1
2018-Apr-20 01:14N 53°54' E 007°47'0 0.0
2018-Apr-19 11:37N 53°54' E 007°47'0 0.0
2018-Apr-19 09:07N 53°54' E 007°47'0 0.3
2018-Apr-19 08:58N 53°54' E 007°47'0 0.2
2018-Apr-19 08:25N 53°54' E 007°47'0 0.0
2018-Apr-19 07:40N 53°54' E 007°47'0 0.0
2018-Apr-19 07:22N 53°54' E 007°47'0 0.0
2018-Apr-19 06:55N 53°54' E 007°47'0 0.0
2018-Apr-19 05:22N 53°54' E 007°47'0 0.0
2018-Apr-19 04:58N 53°54' E 007°47'0 0.0
2018-Apr-19 04:28N 53°54' E 007°47'0 0.0
2018-Apr-19 03:55N 53°54' E 007°47'0 0.0
2018-Apr-19 01:49N 53°54' E 007°47'108 4.1
2018-Apr-17 23:37N 54°09' E 004°45'110.6
2018-Apr-17 23:30N 54°09' E 004°43'1410.6
2018-Apr-17 22:11N 54°12' E 004°19'310.7
2018-Apr-17 21:51N 54°13' E 004°14'410.5
2018-Apr-17 21:27N 54°15' E 004°07'1110.5
2018-Apr-17 20:25N 54°20' E 003°51'130 8.9
2018-Apr-17 05:46N 54°45' E 000°10'3 9.7
2018-Apr-17 05:30N 54°45' E 000°06'510.1
2018-Apr-17 05:00N 54°45' W 000°03'510.5
2018-Apr-17 04:30N 54°45' W 000°12'510.4
2018-Apr-17 04:00N 54°45' W 000°21'2110.8
2018-Apr-17 02:05N 54°46' W 000°57'111.0
2018-Apr-17 01:59N 54°45' W 000°58'6 0.1
2018-Apr-15 07:51N 54°42' W 001°06'2 4.7
2018-Apr-15 07:30N 54°43' W 001°06'3 5.1
2018-Apr-15 07:00N 54°46' W 001°09'0 0.8
2018-Apr-15 06:25N 54°46' W 001°09'0 0.1
2018-Apr-15 05:55N 54°46' W 001°09'0 0.1
2018-Apr-15 05:28N 54°46' W 001°09'0 0.1
2018-Apr-15 04:58N 54°46' W 001°09'0 0.0
2018-Apr-15 04:28N 54°46' W 001°09'0 0.0
2018-Apr-15 04:01N 54°46' W 001°09'0 0.0
2018-Apr-15 03:31N 54°46' W 001°09'0 0.0
2018-Apr-15 02:57N 54°46' W 001°09'0 0.0
2018-Apr-15 02:15N 54°46' W 001°09'0 0.0
2018-Apr-15 02:00N 54°46' W 001°09'0 0.0
2018-Apr-15 01:30N 54°46' W 001°09'0 0.0
2018-Apr-15 01:00N 54°46' W 001°09'0 0.0
2018-Apr-15 00:30N 54°46' W 001°09'0 0.0
2018-Apr-15 00:00N 54°46' W 001°09'0 0.2
2018-Apr-14 23:18N 54°46' W 001°09'0 0.0
2018-Apr-14 23:00N 54°46' W 001°09'0 0.1
2018-Apr-14 22:30N 54°46' W 001°09'0 0.0
2018-Apr-14 22:00N 54°46' W 001°09'0 0.0
2018-Apr-14 21:30N 54°46' W 001°09'0 0.0
2018-Apr-14 21:00N 54°46' W 001°09'0 0.0
2018-Apr-14 20:30N 54°46' W 001°09'0 0.0
2018-Apr-14 20:00N 54°46' W 001°09'0 0.0
2018-Apr-14 19:30N 54°46' W 001°09'0 0.1
2018-Apr-14 19:00N 54°46' W 001°09'0 0.0
2018-Apr-14 18:06N 54°46' W 001°09'0 0.1
2018-Apr-14 18:00N 54°46' W 001°09'0 0.1
2018-Apr-14 17:21N 54°46' W 001°09'0 0.1
2018-Apr-14 16:51N 54°46' W 001°09'0 0.0
2018-Apr-14 16:21N 54°46' W 001°09'0 0.0
2018-Apr-14 15:51N 54°46' W 001°09'0 0.0
2018-Apr-14 15:21N 54°46' W 001°09'0 0.0
2018-Apr-14 14:51N 54°46' W 001°09'0 0.0
2018-Apr-14 14:21N 54°46' W 001°09'0 0.0
2018-Apr-14 13:54N 54°46' W 001°09'0 0.0
2018-Apr-14 13:24N 54°46' W 001°09'0 0.0
2018-Apr-14 12:54N 54°46' W 001°09'0 0.0
2018-Apr-14 12:24N 54°46' W 001°09'0 0.0
2018-Apr-14 11:51N 54°46' W 001°09'0 0.0
2018-Apr-14 11:21N 54°46' W 001°09'0 0.1
2018-Apr-14 10:54N 54°46' W 001°09'0 0.1
2018-Apr-14 09:39N 54°46' W 001°09'0 0.0
2018-Apr-14 09:24N 54°46' W 001°09'0 0.0
2018-Apr-14 08:51N 54°46' W 001°09'0 0.0
2018-Apr-14 08:27N 54°46' W 001°09'1 1.6
2018-Apr-14 08:00N 54°45' W 001°08'3 6.8
2018-Apr-14 07:30N 54°42' W 001°06'5 9.1
2018-Apr-14 06:58N 54°40' W 000°58'17 9.7
2018-Apr-14 05:11N 54°33' W 000°31'2 9.0
2018-Apr-14 05:00N 54°33' W 000°28'4 8.8
2018-Apr-14 04:30N 54°31' W 000°21'4 8.8
2018-Apr-14 04:00N 54°30' W 000°14'4 8.6
2018-Apr-14 03:30N 54°28' W 000°08'4 8.8
2018-Apr-14 03:00N 54°26' W 000°01'4 8.9
2018-Apr-14 02:30N 54°24' E 000°06'4 9.0
2018-Apr-14 02:00N 54°23' E 000°14'5 9.2
2018-Apr-14 01:30N 54°21' E 000°21'5 9.5
2018-Apr-14 01:00N 54°19' E 000°28'174 7.7
2018-Apr-13 02:28N 51°51' E 003°00'6 9.7
2018-Apr-13 01:51N 51°50' E 003°10'410.4
2018-Apr-13 01:29N 51°46' E 003°13'610.1
2018-Apr-13 00:51N 51°41' E 003°18'4 8.6
2018-Apr-13 00:20N 51°37' E 003°22'410.7
2018-Apr-12 23:59N 51°34' E 003°25'510.7
2018-Apr-12 23:30N 51°30' E 003°29'4 8.8
2018-Apr-12 23:00N 51°26' E 003°34'3 5.9
2018-Apr-12 22:30N 51°26' E 003°39'3 6.1
2018-Apr-12 22:00N 51°25' E 003°43'4 8.0
2018-Apr-12 21:30N 51°21' E 003°47'4 8.1
2018-Apr-12 21:00N 51°21' E 003°53'4 8.1
2018-Apr-12 20:30N 51°24' E 003°57'3 5.9
2018-Apr-12 20:00N 51°25' E 004°02'4 7.9
2018-Apr-12 19:30N 51°22' E 004°06'4 8.3
2018-Apr-12 19:00N 51°24' E 004°12'4 8.6
2018-Apr-12 18:30N 51°21' E 004°17'0 0.8
2018-Apr-12 18:00N 51°21' E 004°17'0 0.0
2018-Apr-12 17:30N 51°21' E 004°17'2 3.0
2018-Apr-12 17:01N 51°19' E 004°19'0 0.6
2018-Apr-12 16:28N 51°19' E 004°18'0 0.0
2018-Apr-12 15:58N 51°19' E 004°18'0 0.0
2018-Apr-12 15:28N 51°19' E 004°18'0 0.0
2018-Apr-12 14:52N 51°19' E 004°18'0 0.0
2018-Apr-12 14:16N 51°19' E 004°18'0 0.0
2018-Apr-12 13:58N 51°19' E 004°18'0 0.0
2018-Apr-12 13:22N 51°19' E 004°18'0 0.0
2018-Apr-12 12:58N 51°19' E 004°18'0 0.0
2018-Apr-12 12:28N 51°19' E 004°18'0 0.0
2018-Apr-12 11:58N 51°19' E 004°18'0 0.0
2018-Apr-12 11:22N 51°19' E 004°18'0 0.0
2018-Apr-12 10:58N 51°19' E 004°18'0 0.0
2018-Apr-12 10:25N 51°19' E 004°18'0 0.0
2018-Apr-11 12:04N 51°19' E 004°18'0 0.0
2018-Apr-11 12:00N 51°19' E 004°18'1 1.4
2018-Apr-11 11:30N 51°20' E 004°18'1 2.6
2018-Apr-11 11:01N 51°21' E 004°17'0 0.0
2018-Apr-11 10:30N 51°21' E 004°17'0 0.1
2018-Apr-11 10:00N 51°21' E 004°17'2 4.8
2018-Apr-11 09:30N 51°22' E 004°13'4 7.2
2018-Apr-11 09:00N 51°22' E 004°08'5 9.9
2018-Apr-11 08:30N 51°25' E 004°02'5 9.6
2018-Apr-11 08:00N 51°22' E 003°56'611.3
2018-Apr-11 07:30N 51°21' E 003°47'510.6
2018-Apr-11 07:00N 51°25' E 003°42'  
Track history (hours):
 
Tides and Currents Weather Stations Pressure Air Temp Water Temp Dewpoint Dewpoint Depression Visibility Wind Speed Wind Dir Waves Ship Positions

Gas Texiana

Last reported at 2018-Apr-21 06:50 UTC. Time now 2018-Apr-21 07:56 UTC.
Position N 53°54' E 007°47'.

Length 105 m; draft 5 m.

Type: Ship (hazmat cat A). MMSI: 538002515.

Date/timePositionNaut miles runAvg speedWind from/ knotsBaromVisibWave heightAir tempDewpointWater temp
2018-Apr-21 06:50N 53°54' E 007°47'0 0.0
2018-Apr-21 06:26N 53°54' E 007°47'0 0.0
2018-Apr-21 05:56N 53°54' E 007°47'0 0.0
2018-Apr-21 05:26N 53°54' E 007°47'0 0.0
2018-Apr-21 02:44N 53°54' E 007°47'0 0.0
2018-Apr-21 02:14N 53°54' E 007°47'0 0.0
2018-Apr-20 20:52N 53°54' E 007°47'0 0.0
2018-Apr-20 06:21N 53°54' E 007°47'0 0.0
2018-Apr-20 05:45N 53°54' E 007°47'0 0.0
2018-Apr-20 05:27N 53°54' E 007°47'0 0.0
2018-Apr-20 04:57N 53°54' E 007°47'0 0.0
2018-Apr-20 03:17N 53°54' E 007°47'0 0.0
2018-Apr-20 01:38N 53°54' E 007°47'0 0.1
2018-Apr-20 01:14N 53°54' E 007°47'0 0.0
2018-Apr-19 11:37N 53°54' E 007°47'0 0.0
2018-Apr-19 09:07N 53°54' E 007°47'0 0.3
2018-Apr-19 08:58N 53°54' E 007°47'0 0.2
2018-Apr-19 08:25N 53°54' E 007°47'0 0.0
2018-Apr-19 07:40N 53°54' E 007°47'0 0.0
2018-Apr-19 07:22N 53°54' E 007°47'0 0.0
2018-Apr-19 06:55N 53°54' E 007°47'0 0.0
2018-Apr-19 05:22N 53°54' E 007°47'0 0.0
2018-Apr-19 04:58N 53°54' E 007°47'0 0.0
2018-Apr-19 04:28N 53°54' E 007°47'0 0.0
2018-Apr-19 03:55N 53°54' E 007°47'0 0.0
2018-Apr-19 01:49N 53°54' E 007°47'108 4.1
2018-Apr-17 23:37N 54°09' E 004°45'110.6
2018-Apr-17 23:30N 54°09' E 004°43'1410.6
2018-Apr-17 22:11N 54°12' E 004°19'310.7
2018-Apr-17 21:51N 54°13' E 004°14'410.5
2018-Apr-17 21:27N 54°15' E 004°07'1110.5
2018-Apr-17 20:25N 54°20' E 003°51'130 8.9
2018-Apr-17 05:46N 54°45' E 000°10'3 9.7
2018-Apr-17 05:30N 54°45' E 000°06'510.1
2018-Apr-17 05:00N 54°45' W 000°03'510.5
2018-Apr-17 04:30N 54°45' W 000°12'510.4
2018-Apr-17 04:00N 54°45' W 000°21'2110.8
2018-Apr-17 02:05N 54°46' W 000°57'111.0
2018-Apr-17 01:59N 54°45' W 000°58'6 0.1
2018-Apr-15 07:51N 54°42' W 001°06'2 4.7
2018-Apr-15 07:30N 54°43' W 001°06'3 5.1
2018-Apr-15 07:00N 54°46' W 001°09'0 0.8
2018-Apr-15 06:25N 54°46' W 001°09'0 0.1
2018-Apr-15 05:55N 54°46' W 001°09'0 0.1
2018-Apr-15 05:28N 54°46' W 001°09'0 0.1
2018-Apr-15 04:58N 54°46' W 001°09'0 0.0
2018-Apr-15 04:28N 54°46' W 001°09'0 0.0
2018-Apr-15 04:01N 54°46' W 001°09'0 0.0
2018-Apr-15 03:31N 54°46' W 001°09'0 0.0
2018-Apr-15 02:57N 54°46' W 001°09'0 0.0
2018-Apr-15 02:15N 54°46' W 001°09'0 0.0
2018-Apr-15 02:00N 54°46' W 001°09'0 0.0
2018-Apr-15 01:30N 54°46' W 001°09'0 0.0
2018-Apr-15 01:00N 54°46' W 001°09'0 0.0
2018-Apr-15 00:30N 54°46' W 001°09'0 0.0
2018-Apr-15 00:00N 54°46' W 001°09'0 0.2
2018-Apr-14 23:18N 54°46' W 001°09'0 0.0
2018-Apr-14 23:00N 54°46' W 001°09'0 0.1
2018-Apr-14 22:30N 54°46' W 001°09'0 0.0
2018-Apr-14 22:00N 54°46' W 001°09'0 0.0
2018-Apr-14 21:30N 54°46' W 001°09'0 0.0
2018-Apr-14 21:00N 54°46' W 001°09'0 0.0
2018-Apr-14 20:30N 54°46' W 001°09'0 0.0
2018-Apr-14 20:00N 54°46' W 001°09'0 0.0
2018-Apr-14 19:30N 54°46' W 001°09'0 0.1
2018-Apr-14 19:00N 54°46' W 001°09'0 0.0
2018-Apr-14 18:06N 54°46' W 001°09'0 0.1
2018-Apr-14 18:00N 54°46' W 001°09'0 0.1
2018-Apr-14 17:21N 54°46' W 001°09'0 0.1
2018-Apr-14 16:51N 54°46' W 001°09'0 0.0
2018-Apr-14 16:21N 54°46' W 001°09'0 0.0
2018-Apr-14 15:51N 54°46' W 001°09'0 0.0
2018-Apr-14 15:21N 54°46' W 001°09'0 0.0
2018-Apr-14 14:51N 54°46' W 001°09'0 0.0
2018-Apr-14 14:21N 54°46' W 001°09'0 0.0
2018-Apr-14 13:54N 54°46' W 001°09'0 0.0
2018-Apr-14 13:24N 54°46' W 001°09'0 0.0
2018-Apr-14 12:54N 54°46' W 001°09'0 0.0
2018-Apr-14 12:24N 54°46' W 001°09'0 0.0
2018-Apr-14 11:51N 54°46' W 001°09'0 0.0
2018-Apr-14 11:21N 54°46' W 001°09'0 0.1
2018-Apr-14 10:54N 54°46' W 001°09'0 0.1
2018-Apr-14 09:39N 54°46' W 001°09'0 0.0
2018-Apr-14 09:24N 54°46' W 001°09'0 0.0
2018-Apr-14 08:51N 54°46' W 001°09'0 0.0
2018-Apr-14 08:27N 54°46' W 001°09'1 1.6
2018-Apr-14 08:00N 54°45' W 001°08'3 6.8
2018-Apr-14 07:30N 54°42' W 001°06'5 9.1
2018-Apr-14 06:58N 54°40' W 000°58'17 9.7
2018-Apr-14 05:11N 54°33' W 000°31'2 9.0
2018-Apr-14 05:00N 54°33' W 000°28'4 8.8
2018-Apr-14 04:30N 54°31' W 000°21'4 8.8
2018-Apr-14 04:00N 54°30' W 000°14'4 8.6
2018-Apr-14 03:30N 54°28' W 000°08'4 8.8
2018-Apr-14 03:00N 54°26' W 000°01'4 8.9
2018-Apr-14 02:30N 54°24' E 000°06'4 9.0
2018-Apr-14 02:00N 54°23' E 000°14'5 9.2
2018-Apr-14 01:30N 54°21' E 000°21'5 9.5
2018-Apr-14 01:00N 54°19' E 000°28'174 7.7
2018-Apr-13 02:28N 51°51' E 003°00'6 9.7
2018-Apr-13 01:51N 51°50' E 003°10'410.4
2018-Apr-13 01:29N 51°46' E 003°13'610.1
2018-Apr-13 00:51N 51°41' E 003°18'4 8.6
2018-Apr-13 00:20N 51°37' E 003°22'410.7
2018-Apr-12 23:59N 51°34' E 003°25'510.7
2018-Apr-12 23:30N 51°30' E 003°29'4 8.8
2018-Apr-12 23:00N 51°26' E 003°34'3 5.9
2018-Apr-12 22:30N 51°26' E 003°39'3 6.1
2018-Apr-12 22:00N 51°25' E 003°43'4 8.0
2018-Apr-12 21:30N 51°21' E 003°47'4 8.1
2018-Apr-12 21:00N 51°21' E 003°53'4 8.1
2018-Apr-12 20:30N 51°24' E 003°57'3 5.9
2018-Apr-12 20:00N 51°25' E 004°02'4 7.9
2018-Apr-12 19:30N 51°22' E 004°06'4 8.3
2018-Apr-12 19:00N 51°24' E 004°12'4 8.6
2018-Apr-12 18:30N 51°21' E 004°17'0 0.8
2018-Apr-12 18:00N 51°21' E 004°17'0 0.0
2018-Apr-12 17:30N 51°21' E 004°17'2 3.0
2018-Apr-12 17:01N 51°19' E 004°19'0 0.6
2018-Apr-12 16:28N 51°19' E 004°18'0 0.0
2018-Apr-12 15:58N 51°19' E 004°18'0 0.0
2018-Apr-12 15:28N 51°19' E 004°18'0 0.0
2018-Apr-12 14:52N 51°19' E 004°18'0 0.0
2018-Apr-12 14:16N 51°19' E 004°18'0 0.0
2018-Apr-12 13:58N 51°19' E 004°18'0 0.0
2018-Apr-12 13:22N 51°19' E 004°18'0 0.0
2018-Apr-12 12:58N 51°19' E 004°18'0 0.0
2018-Apr-12 12:28N 51°19' E 004°18'0 0.0
2018-Apr-12 11:58N 51°19' E 004°18'0 0.0
2018-Apr-12 11:22N 51°19' E 004°18'0 0.0
2018-Apr-12 10:58N 51°19' E 004°18'0 0.0
2018-Apr-12 10:25N 51°19' E 004°18'0 0.0
2018-Apr-11 12:04N 51°19' E 004°18'0 0.0
2018-Apr-11 12:00N 51°19' E 004°18'1 1.4
2018-Apr-11 11:30N 51°20' E 004°18'1 2.6
2018-Apr-11 11:01N 51°21' E 004°17'0 0.0
2018-Apr-11 10:30N 51°21' E 004°17'0 0.1
2018-Apr-11 10:00N 51°21' E 004°17'2 4.8
2018-Apr-11 09:30N 51°22' E 004°13'4 7.2
2018-Apr-11 09:00N 51°22' E 004°08'5 9.9
2018-Apr-11 08:30N 51°25' E 004°02'5 9.6
2018-Apr-11 08:00N 51°22' E 003°56'611.3
2018-Apr-11 07:30N 51°21' E 003°47'510.6
2018-Apr-11 07:00N 51°25' E 003°42'  

Dump ship's entire track history